sensor_id;sensor_type;location;lat;lon;timestamp;P1;durP1;ratioP1;P2;durP2;ratioP2
15748;SDS011;7976;52.526;13.326;2023-01-24T00:02:15;29.88;;;11.20;;
15748;SDS011;7976;52.526;13.326;2023-01-24T00:04:42;28.53;;;10.57;;
15748;SDS011;7976;52.526;13.326;2023-01-24T00:07:08;30.67;;;10.87;;
15748;SDS011;7976;52.526;13.326;2023-01-24T00:09:35;29.43;;;11.37;;
15748;SDS011;7976;52.526;13.326;2023-01-24T00:12:02;28.85;;;10.45;;
15748;SDS011;7976;52.526;13.326;2023-01-24T00:14:30;27.07;;;11.77;;
15748;SDS011;7976;52.526;13.326;2023-01-24T00:16:57;29.73;;;10.63;;
15748;SDS011;7976;52.526;13.326;2023-01-24T00:19:24;30.15;;;10.50;;
15748;SDS011;7976;52.526;13.326;2023-01-24T00:21:51;29.27;;;10.38;;
15748;SDS011;7976;52.526;13.326;2023-01-24T00:24:17;30.48;;;11.15;;
15748;SDS011;7976;52.526;13.326;2023-01-24T00:26:44;35.73;;;12.70;;
15748;SDS011;7976;52.526;13.326;2023-01-24T00:29:11;33.90;;;12.32;;
15748;SDS011;7976;52.526;13.326;2023-01-24T00:31:39;28.10;;;10.35;;
15748;SDS011;7976;52.526;13.326;2023-01-24T00:34:06;27.73;;;10.80;;
15748;SDS011;7976;52.526;13.326;2023-01-24T00:36:36;26.13;;;10.00;;
15748;SDS011;7976;52.526;13.326;2023-01-24T00:39:02;27.73;;;10.93;;
15748;SDS011;7976;52.526;13.326;2023-01-24T00:41:31;27.08;;;10.15;;
15748;SDS011;7976;52.526;13.326;2023-01-24T00:43:57;24.00;;;9.30;;
15748;SDS011;7976;52.526;13.326;2023-01-24T00:46:24;25.25;;;9.77;;
15748;SDS011;7976;52.526;13.326;2023-01-24T00:48:52;29.35;;;11.18;;
15748;SDS011;7976;52.526;13.326;2023-01-24T00:51:19;28.05;;;10.40;;
15748;SDS011;7976;52.526;13.326;2023-01-24T00:53:46;27.67;;;10.45;;
15748;SDS011;7976;52.526;13.326;2023-01-24T00:56:13;29.27;;;10.90;;
15748;SDS011;7976;52.526;13.326;2023-01-24T00:58:40;28.95;;;10.90;;
15748;SDS011;7976;52.526;13.326;2023-01-24T01:01:07;28.48;;;12.18;;
15748;SDS011;7976;52.526;13.326;2023-01-24T01:03:35;29.38;;;10.25;;
15748;SDS011;7976;52.526;13.326;2023-01-24T01:06:06;24.90;;;9.18;;
15748;SDS011;7976;52.526;13.326;2023-01-24T01:08:37;23.42;;;10.02;;
15748;SDS011;7976;52.526;13.326;2023-01-24T01:11:05;26.55;;;10.20;;
15748;SDS011;7976;52.526;13.326;2023-01-24T01:13:32;28.90;;;10.10;;
15748;SDS011;7976;52.526;13.326;2023-01-24T01:16:00;25.17;;;10.13;;
15748;SDS011;7976;52.526;13.326;2023-01-24T01:18:28;23.33;;;9.15;;
15748;SDS011;7976;52.526;13.326;2023-01-24T01:20:55;27.23;;;10.27;;
15748;SDS011;7976;52.526;13.326;2023-01-24T01:23:23;24.83;;;8.93;;
15748;SDS011;7976;52.526;13.326;2023-01-24T01:25:50;26.15;;;9.30;;
15748;SDS011;7976;52.526;13.326;2023-01-24T01:28:17;22.90;;;9.27;;
15748;SDS011;7976;52.526;13.326;2023-01-24T01:30:48;22.10;;;8.73;;
15748;SDS011;7976;52.526;13.326;2023-01-24T01:33:18;26.10;;;9.13;;
15748;SDS011;7976;52.526;13.326;2023-01-24T01:35:46;27.57;;;9.67;;
15748;SDS011;7976;52.526;13.326;2023-01-24T01:38:13;23.83;;;9.25;;
15748;SDS011;7976;52.526;13.326;2023-01-24T01:40:41;19.97;;;8.40;;
15748;SDS011;7976;52.526;13.326;2023-01-24T01:43:09;21.73;;;8.80;;
15748;SDS011;7976;52.526;13.326;2023-01-24T01:45:41;21.13;;;8.30;;
15748;SDS011;7976;52.526;13.326;2023-01-24T01:48:21;21.17;;;8.13;;
15748;SDS011;7976;52.526;13.326;2023-01-24T01:51:02;21.27;;;8.57;;
15748;SDS011;7976;52.526;13.326;2023-01-24T01:53:41;22.73;;;8.50;;
15748;SDS011;7976;52.526;13.326;2023-01-24T01:56:26;18.55;;;7.85;;
15748;SDS011;7976;52.526;13.326;2023-01-24T01:58:59;21.97;;;7.97;;
15748;SDS011;7976;52.526;13.326;2023-01-24T02:01:34;20.50;;;7.57;;
15748;SDS011;7976;52.526;13.326;2023-01-24T02:04:07;22.60;;;8.50;;
15748;SDS011;7976;52.526;13.326;2023-01-24T02:06:46;20.93;;;7.50;;
15748;SDS011;7976;52.526;13.326;2023-01-24T02:09:21;23.65;;;8.40;;
15748;SDS011;7976;52.526;13.326;2023-01-24T02:11:56;18.90;;;7.13;;
15748;SDS011;7976;52.526;13.326;2023-01-24T02:14:30;17.63;;;5.95;;
15748;SDS011;7976;52.526;13.326;2023-01-24T02:17:16;17.93;;;6.57;;
15748;SDS011;7976;52.526;13.326;2023-01-24T02:19:50;18.80;;;8.07;;
15748;SDS011;7976;52.526;13.326;2023-01-24T02:22:37;15.33;;;6.30;;
15748;SDS011;7976;52.526;13.326;2023-01-24T02:25:16;15.77;;;6.17;;
15748;SDS011;7976;52.526;13.326;2023-01-24T02:27:53;18.80;;;7.53;;
15748;SDS011;7976;52.526;13.326;2023-01-24T02:30:23;17.80;;;7.63;;
15748;SDS011;7976;52.526;13.326;2023-01-24T02:32:50;13.57;;;6.40;;
15748;SDS011;7976;52.526;13.326;2023-01-24T02:35:24;16.30;;;6.32;;
15748;SDS011;7976;52.526;13.326;2023-01-24T02:37:53;17.10;;;6.83;;
15748;SDS011;7976;52.526;13.326;2023-01-24T02:40:25;20.03;;;6.47;;
15748;SDS011;7976;52.526;13.326;2023-01-24T02:42:57;16.60;;;6.37;;
15748;SDS011;7976;52.526;13.326;2023-01-24T02:45:29;16.53;;;6.80;;
15748;SDS011;7976;52.526;13.326;2023-01-24T02:47:59;20.03;;;7.03;;
15748;SDS011;7976;52.526;13.326;2023-01-24T02:50:28;17.23;;;6.43;;
15748;SDS011;7976;52.526;13.326;2023-01-24T02:53:18;16.20;;;5.90;;
15748;SDS011;7976;52.526;13.326;2023-01-24T02:55:54;15.70;;;5.80;;
15748;SDS011;7976;52.526;13.326;2023-01-24T02:58:40;16.53;;;6.27;;
15748;SDS011;7976;52.526;13.326;2023-01-24T03:01:07;17.20;;;5.57;;
15748;SDS011;7976;52.526;13.326;2023-01-24T03:03:34;14.73;;;5.70;;
15748;SDS011;7976;52.526;13.326;2023-01-24T03:06:01;14.95;;;6.10;;
15748;SDS011;7976;52.526;13.326;2023-01-24T03:08:32;13.47;;;5.50;;
15748;SDS011;7976;52.526;13.326;2023-01-24T03:11:05;18.03;;;6.53;;
15748;SDS011;7976;52.526;13.326;2023-01-24T03:13:35;13.40;;;5.30;;
15748;SDS011;7976;52.526;13.326;2023-01-24T03:16:23;17.57;;;6.33;;
15748;SDS011;7976;52.526;13.326;2023-01-24T03:19:07;16.43;;;5.67;;
15748;SDS011;7976;52.526;13.326;2023-01-24T03:21:52;14.90;;;5.20;;
15748;SDS011;7976;52.526;13.326;2023-01-24T03:24:37;15.23;;;6.50;;
15748;SDS011;7976;52.526;13.326;2023-01-24T03:27:22;15.50;;;5.57;;
15748;SDS011;7976;52.526;13.326;2023-01-24T03:30:08;14.98;;;5.45;;
15748;SDS011;7976;52.526;13.326;2023-01-24T03:33:00;17.20;;;6.13;;
15748;SDS011;7976;52.526;13.326;2023-01-24T03:35:47;15.47;;;5.37;;
15748;SDS011;7976;52.526;13.326;2023-01-24T03:38:22;12.60;;;5.13;;
15748;SDS011;7976;52.526;13.326;2023-01-24T03:41:07;14.43;;;4.93;;
15748;SDS011;7976;52.526;13.326;2023-01-24T03:43:36;14.37;;;5.40;;
15748;SDS011;7976;52.526;13.326;2023-01-24T03:46:03;13.50;;;5.10;;
15748;SDS011;7976;52.526;13.326;2023-01-24T03:48:44;13.77;;;5.40;;
15748;SDS011;7976;52.526;13.326;2023-01-24T03:51:12;18.13;;;6.33;;
15748;SDS011;7976;52.526;13.326;2023-01-24T03:53:57;14.47;;;5.30;;
15748;SDS011;7976;52.526;13.326;2023-01-24T03:56:29;14.90;;;5.80;;
15748;SDS011;7976;52.526;13.326;2023-01-24T03:58:59;14.53;;;4.70;;
15748;SDS011;7976;52.526;13.326;2023-01-24T04:01:29;16.63;;;6.57;;
15748;SDS011;7976;52.526;13.326;2023-01-24T04:04:09;15.53;;;5.67;;
15748;SDS011;7976;52.526;13.326;2023-01-24T04:06:36;14.57;;;5.77;;
15748;SDS011;7976;52.526;13.326;2023-01-24T04:09:07;16.17;;;6.27;;
15748;SDS011;7976;52.526;13.326;2023-01-24T04:11:35;17.20;;;6.07;;
15748;SDS011;7976;52.526;13.326;2023-01-24T04:14:09;13.93;;;5.70;;
15748;SDS011;7976;52.526;13.326;2023-01-24T04:16:47;16.03;;;5.60;;
15748;SDS011;7976;52.526;13.326;2023-01-24T04:19:22;14.90;;;4.97;;
15748;SDS011;7976;52.526;13.326;2023-01-24T04:21:50;14.90;;;6.80;;
15748;SDS011;7976;52.526;13.326;2023-01-24T04:24:18;17.90;;;5.80;;
15748;SDS011;7976;52.526;13.326;2023-01-24T04:26:46;15.50;;;5.63;;
15748;SDS011;7976;52.526;13.326;2023-01-24T04:29:17;15.80;;;5.80;;
15748;SDS011;7976;52.526;13.326;2023-01-24T04:31:50;13.27;;;5.47;;
15748;SDS011;7976;52.526;13.326;2023-01-24T04:34:40;14.80;;;5.53;;
15748;SDS011;7976;52.526;13.326;2023-01-24T04:37:19;14.03;;;5.97;;
15748;SDS011;7976;52.526;13.326;2023-01-24T04:39:47;14.03;;;5.27;;
15748;SDS011;7976;52.526;13.326;2023-01-24T04:42:15;13.20;;;5.40;;
15748;SDS011;7976;52.526;13.326;2023-01-24T04:44:44;14.27;;;5.33;;
15748;SDS011;7976;52.526;13.326;2023-01-24T04:47:11;17.07;;;5.97;;
15748;SDS011;7976;52.526;13.326;2023-01-24T04:49:42;15.20;;;5.90;;
15748;SDS011;7976;52.526;13.326;2023-01-24T04:52:15;17.13;;;5.63;;
15748;SDS011;7976;52.526;13.326;2023-01-24T04:55:00;12.50;;;5.27;;
15748;SDS011;7976;52.526;13.326;2023-01-24T04:57:28;14.27;;;5.70;;
15748;SDS011;7976;52.526;13.326;2023-01-24T04:59:56;15.33;;;6.07;;
15748;SDS011;7976;52.526;13.326;2023-01-24T05:02:23;13.40;;;5.60;;
15748;SDS011;7976;52.526;13.326;2023-01-24T05:04:52;14.23;;;6.00;;
15748;SDS011;7976;52.526;13.326;2023-01-24T05:07:20;14.20;;;5.60;;
15748;SDS011;7976;52.526;13.326;2023-01-24T05:09:55;14.47;;;5.17;;
15748;SDS011;7976;52.526;13.326;2023-01-24T05:12:22;14.37;;;5.57;;
15748;SDS011;7976;52.526;13.326;2023-01-24T05:14:55;14.47;;;5.83;;
15748;SDS011;7976;52.526;13.326;2023-01-24T05:17:24;13.47;;;5.53;;
15748;SDS011;7976;52.526;13.326;2023-01-24T05:19:56;17.37;;;6.40;;
15748;SDS011;7976;52.526;13.326;2023-01-24T05:22:25;16.92;;;6.43;;
15748;SDS011;7976;52.526;13.326;2023-01-24T05:24:53;16.00;;;6.23;;
15748;SDS011;7976;52.526;13.326;2023-01-24T05:27:23;18.17;;;6.80;;
15748;SDS011;7976;52.526;13.326;2023-01-24T05:29:57;13.87;;;5.70;;
15748;SDS011;7976;52.526;13.326;2023-01-24T05:32:29;14.97;;;6.03;;
15748;SDS011;7976;52.526;13.326;2023-01-24T05:34:59;14.80;;;6.18;;
15748;SDS011;7976;52.526;13.326;2023-01-24T05:37:27;15.10;;;5.73;;
15748;SDS011;7976;52.526;13.326;2023-01-24T05:39:56;16.07;;;6.70;;
15748;SDS011;7976;52.526;13.326;2023-01-24T05:42:25;13.73;;;5.77;;
15748;SDS011;7976;52.526;13.326;2023-01-24T05:44:54;15.23;;;6.33;;
15748;SDS011;7976;52.526;13.326;2023-01-24T05:47:22;16.33;;;5.77;;
15748;SDS011;7976;52.526;13.326;2023-01-24T05:49:50;17.97;;;6.00;;
15748;SDS011;7976;52.526;13.326;2023-01-24T05:52:20;14.97;;;6.13;;
15748;SDS011;7976;52.526;13.326;2023-01-24T05:54:50;14.50;;;5.80;;
15748;SDS011;7976;52.526;13.326;2023-01-24T05:57:35;14.37;;;5.63;;
15748;SDS011;7976;52.526;13.326;2023-01-24T06:00:13;16.92;;;6.18;;
15748;SDS011;7976;52.526;13.326;2023-01-24T06:03:12;14.77;;;5.57;;
15748;SDS011;7976;52.526;13.326;2023-01-24T06:05:44;15.40;;;5.70;;
15748;SDS011;7976;52.526;13.326;2023-01-24T06:08:15;12.73;;;5.60;;
15748;SDS011;7976;52.526;13.326;2023-01-24T06:10:45;15.43;;;5.90;;
15748;SDS011;7976;52.526;13.326;2023-01-24T06:13:13;15.63;;;5.78;;
15748;SDS011;7976;52.526;13.326;2023-01-24T06:15:42;14.80;;;5.93;;
15748;SDS011;7976;52.526;13.326;2023-01-24T06:18:12;14.70;;;6.13;;
15748;SDS011;7976;52.526;13.326;2023-01-24T06:20:49;15.07;;;5.83;;
15748;SDS011;7976;52.526;13.326;2023-01-24T06:23:29;16.53;;;6.27;;
15748;SDS011;7976;52.526;13.326;2023-01-24T06:26:04;17.63;;;6.43;;
15748;SDS011;7976;52.526;13.326;2023-01-24T06:28:46;16.08;;;6.30;;
15748;SDS011;7976;52.526;13.326;2023-01-24T06:31:19;23.70;;;6.47;;
15748;SDS011;7976;52.526;13.326;2023-01-24T06:34:08;16.47;;;6.60;;
15748;SDS011;7976;52.526;13.326;2023-01-24T06:36:59;12.77;;;5.75;;
15748;SDS011;7976;52.526;13.326;2023-01-24T06:39:45;16.10;;;6.67;;
15748;SDS011;7976;52.526;13.326;2023-01-24T06:42:18;15.68;;;6.13;;
15748;SDS011;7976;52.526;13.326;2023-01-24T06:44:50;19.90;;;6.80;;
15748;SDS011;7976;52.526;13.326;2023-01-24T06:47:19;19.95;;;6.72;;
15748;SDS011;7976;52.526;13.326;2023-01-24T06:49:50;20.63;;;6.73;;
15748;SDS011;7976;52.526;13.326;2023-01-24T06:52:22;20.50;;;7.83;;
15748;SDS011;7976;52.526;13.326;2023-01-24T06:54:52;21.63;;;7.27;;
15748;SDS011;7976;52.526;13.326;2023-01-24T06:57:21;25.87;;;7.30;;
15748;SDS011;7976;52.526;13.326;2023-01-24T06:59:50;18.90;;;6.93;;
15748;SDS011;7976;52.526;13.326;2023-01-24T07:02:17;21.73;;;7.47;;
15748;SDS011;7976;52.526;13.326;2023-01-24T07:04:48;22.30;;;7.33;;
15748;SDS011;7976;52.526;13.326;2023-01-24T07:07:17;23.13;;;7.03;;
15748;SDS011;7976;52.526;13.326;2023-01-24T07:09:49;25.50;;;8.30;;
15748;SDS011;7976;52.526;13.326;2023-01-24T07:12:17;26.07;;;8.17;;
15748;SDS011;7976;52.526;13.326;2023-01-24T07:14:44;23.27;;;7.57;;
15748;SDS011;7976;52.526;13.326;2023-01-24T07:17:11;16.93;;;6.97;;
15748;SDS011;7976;52.526;13.326;2023-01-24T07:19:39;28.17;;;7.77;;
15748;SDS011;7976;52.526;13.326;2023-01-24T07:22:09;23.20;;;8.07;;
15748;SDS011;7976;52.526;13.326;2023-01-24T07:24:37;22.93;;;7.47;;
15748;SDS011;7976;52.526;13.326;2023-01-24T07:27:07;23.10;;;8.03;;
15748;SDS011;7976;52.526;13.326;2023-01-24T07:29:34;23.63;;;8.37;;
15748;SDS011;7976;52.526;13.326;2023-01-24T07:32:02;17.37;;;6.40;;
15748;SDS011;7976;52.526;13.326;2023-01-24T07:34:29;21.70;;;8.20;;
15748;SDS011;7976;52.526;13.326;2023-01-24T07:36:56;26.73;;;7.70;;
15748;SDS011;7976;52.526;13.326;2023-01-24T07:39:23;23.77;;;7.73;;
15748;SDS011;7976;52.526;13.326;2023-01-24T07:41:52;22.03;;;7.77;;
15748;SDS011;7976;52.526;13.326;2023-01-24T07:44:21;22.77;;;7.80;;
15748;SDS011;7976;52.526;13.326;2023-01-24T07:46:48;23.33;;;7.00;;
15748;SDS011;7976;52.526;13.326;2023-01-24T07:49:15;20.65;;;7.65;;
15748;SDS011;7976;52.526;13.326;2023-01-24T07:51:42;19.83;;;6.73;;
15748;SDS011;7976;52.526;13.326;2023-01-24T07:54:10;18.40;;;6.63;;
15748;SDS011;7976;52.526;13.326;2023-01-24T07:56:37;23.63;;;7.10;;
15748;SDS011;7976;52.526;13.326;2023-01-24T07:59:04;21.27;;;7.47;;
15748;SDS011;7976;52.526;13.326;2023-01-24T08:01:32;25.30;;;8.40;;
15748;SDS011;7976;52.526;13.326;2023-01-24T08:03:59;22.00;;;7.17;;
15748;SDS011;7976;52.526;13.326;2023-01-24T08:06:26;23.07;;;8.87;;
15748;SDS011;7976;52.526;13.326;2023-01-24T08:08:52;18.27;;;6.70;;
15748;SDS011;7976;52.526;13.326;2023-01-24T08:11:19;21.90;;;7.70;;
15748;SDS011;7976;52.526;13.326;2023-01-24T08:13:47;20.98;;;7.97;;
15748;SDS011;7976;52.526;13.326;2023-01-24T08:16:15;22.13;;;6.90;;
15748;SDS011;7976;52.526;13.326;2023-01-24T08:18:44;18.90;;;7.30;;
15748;SDS011;7976;52.526;13.326;2023-01-24T08:21:11;19.33;;;6.47;;
15748;SDS011;7976;52.526;13.326;2023-01-24T08:23:38;20.83;;;7.20;;
15748;SDS011;7976;52.526;13.326;2023-01-24T08:26:05;21.73;;;7.30;;
15748;SDS011;7976;52.526;13.326;2023-01-24T08:28:32;17.13;;;6.20;;
15748;SDS011;7976;52.526;13.326;2023-01-24T08:31:00;21.08;;;6.88;;
15748;SDS011;7976;52.526;13.326;2023-01-24T08:33:27;21.70;;;7.10;;
15748;SDS011;7976;52.526;13.326;2023-01-24T08:35:55;18.43;;;6.90;;
15748;SDS011;7976;52.526;13.326;2023-01-24T08:38:24;23.77;;;6.80;;
15748;SDS011;7976;52.526;13.326;2023-01-24T08:40:51;21.27;;;7.07;;
15748;SDS011;7976;52.526;13.326;2023-01-24T08:43:18;18.65;;;7.63;;
15748;SDS011;7976;52.526;13.326;2023-01-24T08:45:45;20.83;;;7.13;;
15748;SDS011;7976;52.526;13.326;2023-01-24T08:48:13;21.37;;;7.57;;
15748;SDS011;7976;52.526;13.326;2023-01-24T08:50:40;24.48;;;7.60;;
15748;SDS011;7976;52.526;13.326;2023-01-24T08:53:08;28.77;;;8.43;;
15748;SDS011;7976;52.526;13.326;2023-01-24T08:55:35;26.02;;;8.60;;
15748;SDS011;7976;52.526;13.326;2023-01-24T08:58:03;34.38;;;8.70;;
15748;SDS011;7976;52.526;13.326;2023-01-24T09:00:31;27.40;;;9.23;;
15748;SDS011;7976;52.526;13.326;2023-01-24T09:02:58;24.40;;;8.10;;
15748;SDS011;7976;52.526;13.326;2023-01-24T09:05:26;31.17;;;8.70;;
15748;SDS011;7976;52.526;13.326;2023-01-24T09:07:53;27.50;;;8.57;;
15748;SDS011;7976;52.526;13.326;2023-01-24T09:10:21;28.97;;;9.07;;
15748;SDS011;7976;52.526;13.326;2023-01-24T09:12:48;26.45;;;8.48;;
15748;SDS011;7976;52.526;13.326;2023-01-24T09:15:15;25.30;;;8.90;;
15748;SDS011;7976;52.526;13.326;2023-01-24T09:17:42;30.83;;;8.50;;
15748;SDS011;7976;52.526;13.326;2023-01-24T09:20:09;37.65;;;10.00;;
15748;SDS011;7976;52.526;13.326;2023-01-24T09:22:38;29.60;;;9.30;;
15748;SDS011;7976;52.526;13.326;2023-01-24T09:25:06;32.83;;;9.23;;
15748;SDS011;7976;52.526;13.326;2023-01-24T09:27:35;38.25;;;8.90;;
15748;SDS011;7976;52.526;13.326;2023-01-24T09:30:03;26.98;;;9.50;;
15748;SDS011;7976;52.526;13.326;2023-01-24T09:32:31;31.70;;;9.88;;
15748;SDS011;7976;52.526;13.326;2023-01-24T09:34:58;30.17;;;10.27;;
15748;SDS011;7976;52.526;13.326;2023-01-24T09:37:25;29.00;;;9.90;;
15748;SDS011;7976;52.526;13.326;2023-01-24T09:39:52;37.35;;;9.80;;
15748;SDS011;7976;52.526;13.326;2023-01-24T09:42:24;30.60;;;10.10;;
15748;SDS011;7976;52.526;13.326;2023-01-24T09:45:10;37.33;;;10.25;;
15748;SDS011;7976;52.526;13.326;2023-01-24T09:47:45;33.38;;;9.25;;
15748;SDS011;7976;52.526;13.326;2023-01-24T09:50:17;37.60;;;10.68;;
15748;SDS011;7976;52.526;13.326;2023-01-24T09:52:51;36.78;;;10.90;;
15748;SDS011;7976;52.526;13.326;2023-01-24T09:55:22;33.33;;;10.33;;
15748;SDS011;7976;52.526;13.326;2023-01-24T09:57:56;38.63;;;11.03;;
15748;SDS011;7976;52.526;13.326;2023-01-24T10:00:33;40.80;;;11.30;;
15748;SDS011;7976;52.526;13.326;2023-01-24T10:03:18;36.72;;;11.20;;
15748;SDS011;7976;52.526;13.326;2023-01-24T10:05:48;38.22;;;11.38;;
15748;SDS011;7976;52.526;13.326;2023-01-24T10:08:19;39.95;;;11.40;;
15748;SDS011;7976;52.526;13.326;2023-01-24T10:11:00;46.03;;;12.02;;
15748;SDS011;7976;52.526;13.326;2023-01-24T10:14:01;37.92;;;11.40;;
15748;SDS011;7976;52.526;13.326;2023-01-24T10:17:04;35.20;;;11.27;;
15748;SDS011;7976;52.526;13.326;2023-01-24T10:20:02;50.75;;;11.65;;
15748;SDS011;7976;52.526;13.326;2023-01-24T10:23:06;37.95;;;11.90;;
15748;SDS011;7976;52.526;13.326;2023-01-24T10:25:45;43.72;;;12.88;;
15748;SDS011;7976;52.526;13.326;2023-01-24T10:28:22;38.33;;;12.52;;
15748;SDS011;7976;52.526;13.326;2023-01-24T10:30:56;45.40;;;12.25;;
15748;SDS011;7976;52.526;13.326;2023-01-24T10:33:35;47.08;;;12.70;;
15748;SDS011;7976;52.526;13.326;2023-01-24T10:36:13;65.43;;;15.60;;
15748;SDS011;7976;52.526;13.326;2023-01-24T10:38:56;56.72;;;13.70;;
15748;SDS011;7976;52.526;13.326;2023-01-24T10:41:24;46.05;;;12.50;;
15748;SDS011;7976;52.526;13.326;2023-01-24T10:44:02;53.83;;;16.13;;
15748;SDS011;7976;52.526;13.326;2023-01-24T10:47:08;52.10;;;15.00;;
15748;SDS011;7976;52.526;13.326;2023-01-24T10:49:56;56.97;;;13.35;;
15748;SDS011;7976;52.526;13.326;2023-01-24T10:52:32;80.18;;;23.58;;
15748;SDS011;7976;52.526;13.326;2023-01-24T10:55:01;57.35;;;15.95;;
15748;SDS011;7976;52.526;13.326;2023-01-24T10:57:48;58.70;;;14.05;;
15748;SDS011;7976;52.526;13.326;2023-01-24T11:00:26;59.03;;;16.80;;
15748;SDS011;7976;52.526;13.326;2023-01-24T11:02:59;48.97;;;15.35;;
15748;SDS011;7976;52.526;13.326;2023-01-24T11:05:38;63.22;;;16.92;;
15748;SDS011;7976;52.526;13.326;2023-01-24T11:08:15;57.42;;;16.23;;
15748;SDS011;7976;52.526;13.326;2023-01-24T11:10:46;58.78;;;15.73;;
15748;SDS011;7976;52.526;13.326;2023-01-24T11:13:23;52.40;;;16.00;;
15748;SDS011;7976;52.526;13.326;2023-01-24T11:16:02;74.75;;;20.60;;
15748;SDS011;7976;52.526;13.326;2023-01-24T11:18:35;77.30;;;20.50;;
15748;SDS011;7976;52.526;13.326;2023-01-24T11:21:14;71.25;;;20.65;;
15748;SDS011;7976;52.526;13.326;2023-01-24T11:23:45;61.17;;;18.48;;
15748;SDS011;7976;52.526;13.326;2023-01-24T11:26:29;78.95;;;26.15;;
15748;SDS011;7976;52.526;13.326;2023-01-24T11:29:15;80.22;;;26.83;;
15748;SDS011;7976;52.526;13.326;2023-01-24T11:31:44;78.53;;;21.15;;
15748;SDS011;7976;52.526;13.326;2023-01-24T11:34:24;69.03;;;20.70;;
15748;SDS011;7976;52.526;13.326;2023-01-24T11:37:31;80.18;;;23.27;;
15748;SDS011;7976;52.526;13.326;2023-01-24T11:40:22;68.47;;;20.20;;
15748;SDS011;7976;52.526;13.326;2023-01-24T11:43:22;56.53;;;15.55;;
15748;SDS011;7976;52.526;13.326;2023-01-24T11:46:16;56.47;;;16.50;;
15748;SDS011;7976;52.526;13.326;2023-01-24T11:49:18;57.53;;;16.48;;
15748;SDS011;7976;52.526;13.326;2023-01-24T11:52:26;60.10;;;16.20;;
15748;SDS011;7976;52.526;13.326;2023-01-24T11:55:33;56.50;;;17.15;;
15748;SDS011;7976;52.526;13.326;2023-01-24T11:58:19;50.05;;;15.48;;
15748;SDS011;7976;52.526;13.326;2023-01-24T12:01:21;58.03;;;16.73;;
15748;SDS011;7976;52.526;13.326;2023-01-24T12:04:24;51.30;;;15.70;;
15748;SDS011;7976;52.526;13.326;2023-01-24T12:07:40;57.15;;;15.98;;
15748;SDS011;7976;52.526;13.326;2023-01-24T12:11:04;64.57;;;16.13;;
15748;SDS011;7976;52.526;13.326;2023-01-24T12:13:51;52.58;;;15.07;;
15748;SDS011;7976;52.526;13.326;2023-01-24T12:17:01;45.38;;;14.50;;
15748;SDS011;7976;52.526;13.326;2023-01-24T12:19:57;50.47;;;15.18;;
15748;SDS011;7976;52.526;13.326;2023-01-24T12:22:55;47.95;;;14.82;;
15748;SDS011;7976;52.526;13.326;2023-01-24T12:25:30;54.10;;;14.93;;
15748;SDS011;7976;52.526;13.326;2023-01-24T12:28:04;51.28;;;14.73;;
15748;SDS011;7976;52.526;13.326;2023-01-24T12:30:39;59.22;;;16.38;;
15748;SDS011;7976;52.526;13.326;2023-01-24T12:33:12;51.45;;;16.05;;
15748;SDS011;7976;52.526;13.326;2023-01-24T12:35:49;43.72;;;15.85;;
15748;SDS011;7976;52.526;13.326;2023-01-24T12:38:25;62.58;;;19.50;;
15748;SDS011;7976;52.526;13.326;2023-01-24T12:41:05;58.60;;;16.33;;
15748;SDS011;7976;52.526;13.326;2023-01-24T12:43:51;52.47;;;16.50;;
15748;SDS011;7976;52.526;13.326;2023-01-24T12:46:33;51.08;;;15.13;;
15748;SDS011;7976;52.526;13.326;2023-01-24T12:49:07;52.63;;;16.15;;
15748;SDS011;7976;52.526;13.326;2023-01-24T12:51:51;57.50;;;17.08;;
15748;SDS011;7976;52.526;13.326;2023-01-24T12:54:32;60.15;;;16.33;;
15748;SDS011;7976;52.526;13.326;2023-01-24T12:57:11;50.33;;;17.05;;
15748;SDS011;7976;52.526;13.326;2023-01-24T12:59:57;63.30;;;18.98;;
15748;SDS011;7976;52.526;13.326;2023-01-24T13:02:29;51.90;;;16.25;;
15748;SDS011;7976;52.526;13.326;2023-01-24T13:05:23;56.88;;;16.63;;
15748;SDS011;7976;52.526;13.326;2023-01-24T13:08:17;61.50;;;17.38;;
15748;SDS011;7976;52.526;13.326;2023-01-24T13:11:04;54.70;;;16.88;;
15748;SDS011;7976;52.526;13.326;2023-01-24T13:14:11;52.53;;;17.60;;
15748;SDS011;7976;52.526;13.326;2023-01-24T13:20:15;48.80;;;16.25;;
15748;SDS011;7976;52.526;13.326;2023-01-24T13:23:26;57.20;;;17.30;;
15748;SDS011;7976;52.526;13.326;2023-01-24T13:26:26;58.75;;;19.23;;
15748;SDS011;7976;52.526;13.326;2023-01-24T13:32:46;61.00;;;18.58;;
15748;SDS011;7976;52.526;13.326;2023-01-24T13:35:21;56.95;;;18.23;;
15748;SDS011;7976;52.526;13.326;2023-01-24T13:37:59;74.18;;;23.58;;
15748;SDS011;7976;52.526;13.326;2023-01-24T13:40:54;56.83;;;18.30;;
15748;SDS011;7976;52.526;13.326;2023-01-24T13:52:46;59.15;;;19.00;;
15748;SDS011;7976;52.526;13.326;2023-01-24T13:55:49;48.80;;;16.15;;
15748;SDS011;7976;52.526;13.326;2023-01-24T13:58:29;47.00;;;14.52;;
15748;SDS011;7976;52.526;13.326;2023-01-24T14:01:02;48.75;;;13.68;;
15748;SDS011;7976;52.526;13.326;2023-01-24T14:03:33;51.20;;;14.82;;
15748;SDS011;7976;52.526;13.326;2023-01-24T14:06:06;39.97;;;13.07;;
15748;SDS011;7976;52.526;13.326;2023-01-24T14:08:41;43.88;;;14.27;;
15748;SDS011;7976;52.526;13.326;2023-01-24T14:11:21;43.20;;;16.20;;
15748;SDS011;7976;52.526;13.326;2023-01-24T14:13:58;47.42;;;16.20;;
15748;SDS011;7976;52.526;13.326;2023-01-24T14:16:54;54.38;;;16.17;;
15748;SDS011;7976;52.526;13.326;2023-01-24T14:19:29;58.88;;;19.40;;
15748;SDS011;7976;52.526;13.326;2023-01-24T14:22:04;57.60;;;18.63;;
15748;SDS011;7976;52.526;13.326;2023-01-24T14:24:51;65.45;;;20.13;;
15748;SDS011;7976;52.526;13.326;2023-01-24T14:27:32;53.53;;;16.60;;
15748;SDS011;7976;52.526;13.326;2023-01-24T14:30:27;43.83;;;14.48;;
15748;SDS011;7976;52.526;13.326;2023-01-24T14:36:01;48.30;;;13.07;;
15748;SDS011;7976;52.526;13.326;2023-01-24T14:38:44;40.03;;;13.43;;
15748;SDS011;7976;52.526;13.326;2023-01-24T14:41:16;43.28;;;13.68;;
15748;SDS011;7976;52.526;13.326;2023-01-24T14:43:48;38.78;;;12.48;;
15748;SDS011;7976;52.526;13.326;2023-01-24T14:46:19;33.70;;;12.82;;
15748;SDS011;7976;52.526;13.326;2023-01-24T14:48:49;40.95;;;12.68;;
15748;SDS011;7976;52.526;13.326;2023-01-24T14:51:18;39.13;;;13.77;;
15748;SDS011;7976;52.526;13.326;2023-01-24T14:53:51;40.03;;;14.07;;
15748;SDS011;7976;52.526;13.326;2023-01-24T14:56:20;42.40;;;13.52;;
15748;SDS011;7976;52.526;13.326;2023-01-24T14:58:47;39.03;;;12.63;;
15748;SDS011;7976;52.526;13.326;2023-01-24T15:01:20;36.10;;;12.20;;
15748;SDS011;7976;52.526;13.326;2023-01-24T15:03:54;49.22;;;14.93;;
15748;SDS011;7976;52.526;13.326;2023-01-24T15:06:22;41.08;;;13.52;;
15748;SDS011;7976;52.526;13.326;2023-01-24T15:08:55;34.40;;;11.85;;
15748;SDS011;7976;52.526;13.326;2023-01-24T15:11:25;32.05;;;11.48;;
15748;SDS011;7976;52.526;13.326;2023-01-24T15:13:56;37.65;;;13.05;;
15748;SDS011;7976;52.526;13.326;2023-01-24T15:16:31;37.97;;;14.68;;
15748;SDS011;7976;52.526;13.326;2023-01-24T15:19:16;35.38;;;13.02;;
15748;SDS011;7976;52.526;13.326;2023-01-24T15:21:49;39.95;;;14.02;;
15748;SDS011;7976;52.526;13.326;2023-01-24T15:24:22;48.85;;;16.25;;
15748;SDS011;7976;52.526;13.326;2023-01-24T15:26:55;54.08;;;16.65;;
15748;SDS011;7976;52.526;13.326;2023-01-24T15:29:38;46.78;;;16.05;;
15748;SDS011;7976;52.526;13.326;2023-01-24T15:32:27;43.58;;;15.27;;
15748;SDS011;7976;52.526;13.326;2023-01-24T15:35:24;44.53;;;15.68;;